createdAt,value
2023-05-14T00:00:07.074Z,96857.69
2023-05-14T00:01:08.950Z,96859.88
2023-05-14T00:02:11.013Z,96853.69
2023-05-14T00:03:12.968Z,96858.47
2023-05-14T00:04:15.131Z,96854.88
2023-05-14T00:05:16.984Z,96861.69
2023-05-14T00:06:18.823Z,96852.88
2023-05-14T00:07:20.810Z,96859.91
2023-05-14T00:08:22.660Z,96856.91
2023-05-14T00:09:24.661Z,96863.28
2023-05-14T00:10:27.721Z,96859.28
2023-05-14T00:11:29.558Z,96853.47
2023-05-14T00:12:32.516Z,96856.88
2023-05-14T00:13:34.292Z,96850.88
2023-05-14T00:14:36.144Z,96848.06
2023-05-14T00:15:38.185Z,96846.84
2023-05-14T00:16:40.051Z,96850.44
2023-05-14T00:17:42.899Z,96857.47
2023-05-14T00:18:44.777Z,96853.47
2023-05-14T00:19:46.623Z,96855.84
2023-05-14T00:20:48.433Z,96846.25
2023-05-14T00:21:50.274Z,96856.47
2023-05-14T00:22:52.266Z,96853.06
2023-05-14T00:23:54.081Z,96848.44
2023-05-14T00:24:56.024Z,96845.03
2023-05-14T00:25:57.885Z,96851.25
2023-05-14T00:26:59.708Z,96848.44
2023-05-14T00:28:01.605Z,96837.22
2023-05-14T00:29:03.503Z,96843.44
2023-05-14T00:30:06.785Z,96838.03
2023-05-14T00:31:08.895Z,96843.25
2023-05-14T00:32:11.277Z,96847.66
2023-05-14T00:33:13.174Z,96846.03
2023-05-14T00:34:15.001Z,96849.25
2023-05-14T00:35:16.884Z,96846.22
2023-05-14T00:36:18.684Z,96841.25
2023-05-14T00:37:20.654Z,96839.00
2023-05-14T00:38:24.442Z,96838.81
2023-05-14T00:39:26.345Z,96843.25
2023-05-14T00:40:28.546Z,96838.03
2023-05-14T00:41:30.431Z,96832.41
2023-05-14T00:42:32.528Z,96842.03
2023-05-14T00:43:34.402Z,96839.22
2023-05-14T00:44:36.244Z,96840.81
2023-05-14T00:45:39.040Z,96841.22
2023-05-14T00:46:41.090Z,96835.19
2023-05-14T00:47:43.221Z,96841.22
2023-05-14T00:48:45.588Z,96844.59
2023-05-14T00:49:47.517Z,96839.59
2023-05-14T00:50:50.123Z,96843.22
2023-05-14T00:51:52.792Z,96850.41
2023-05-14T00:52:54.741Z,96836.78
2023-05-14T00:53:56.819Z,96836.78
2023-05-14T00:54:59.135Z,96842.97
2023-05-14T00:56:01.018Z,96844.38
2023-05-14T00:57:03.632Z,96835.97
2023-05-14T00:58:08.010Z,96832.38
2023-05-14T00:59:09.851Z,96839.59
2023-05-14T01:00:12.542Z,96838.38
2023-05-14T01:01:15.598Z,96839.56
2023-05-14T01:02:17.511Z,96835.53
2023-05-14T01:03:19.580Z,96831.94
2023-05-14T01:04:21.591Z,96835.53
2023-05-14T01:05:26.322Z,96834.94
2023-05-14T01:06:52.172Z,96829.91
2023-05-14T01:08:08.615Z,96837.94
2023-05-14T01:09:22.802Z,96834.31
2023-05-14T01:10:24.828Z,96836.75
2023-05-14T01:11:30.883Z,96835.34
2023-05-14T01:12:44.639Z,96830.72
2023-05-14T01:13:56.421Z,96836.56
2023-05-14T01:15:07.676Z,96836.38
2023-05-14T01:16:12.635Z,96838.13
2023-05-14T01:17:15.075Z,96841.94
2023-05-14T01:18:18.454Z,96839.94
2023-05-14T01:19:30.160Z,96838.31
2023-05-14T01:20:32.072Z,96837.13
2023-05-14T01:21:43.263Z,96830.72
2023-05-14T01:22:45.232Z,96836.72
2023-05-14T01:23:47.035Z,96835.72
2023-05-14T01:24:48.954Z,96838.31
2023-05-14T01:25:51.018Z,96830.09
2023-05-14T01:26:53.702Z,96831.28
2023-05-14T01:28:06.173Z,96839.09
2023-05-14T01:29:16.642Z,96839.09
2023-05-14T01:30:18.509Z,96836.69
2023-05-14T01:31:25.536Z,96828.69
2023-05-14T01:32:28.176Z,96832.69
2023-05-14T01:33:31.112Z,96831.88
2023-05-14T01:34:33.800Z,96841.09
2023-05-14T01:35:35.905Z,96834.69
2023-05-14T01:36:39.603Z,96841.34
2023-05-14T01:37:42.140Z,96835.09
2023-05-14T01:38:46.036Z,96835.09
2023-05-14T01:39:48.763Z,96840.94
2023-05-14T01:40:51.153Z,96842.53
2023-05-14T01:41:53.930Z,96842.31
2023-05-14T01:42:56.854Z,96846.56
2023-05-14T01:43:58.863Z,96840.34
2023-05-14T01:45:01.102Z,96829.13
2023-05-14T01:46:05.123Z,96832.31
2023-05-14T01:47:07.046Z,96830.69
2023-05-14T01:48:08.941Z,96831.06
2023-05-14T01:49:10.991Z,96827.47
2023-05-14T01:50:12.888Z,96825.66
2023-05-14T01:51:15.033Z,96820.44
2023-05-14T01:52:17.845Z,96823.06
2023-05-14T01:53:19.668Z,96822.69
2023-05-14T01:54:21.530Z,96824.66
2023-05-14T01:55:26.783Z,96821.06
2023-05-14T01:56:28.642Z,96819.63
2023-05-14T01:57:30.663Z,96822.19
2023-05-14T01:58:32.488Z,96822.38
2023-05-14T01:59:34.283Z,96819.41
2023-05-14T02:00:36.165Z,96822.25
2023-05-14T02:01:38.169Z,96820.00
2023-05-14T02:02:40.153Z,96825.22
2023-05-14T02:03:42.073Z,96819.22
2023-05-14T02:04:43.985Z,96816.22
2023-05-14T02:05:45.836Z,96820.63
2023-05-14T02:06:47.710Z,96817.84
2023-05-14T02:07:49.599Z,96814.25
2023-05-14T02:08:51.500Z,96815.66
2023-05-14T02:09:53.356Z,96828.28
2023-05-14T02:10:55.180Z,96815.06
2023-05-14T02:11:57.067Z,96814.09
2023-05-14T02:12:58.944Z,96811.06
2023-05-14T02:14:00.857Z,96816.88
2023-05-14T02:15:03.991Z,96810.09
2023-05-14T02:16:06.297Z,96807.47
2023-05-14T02:17:08.334Z,96817.91
2023-05-14T02:18:10.418Z,96811.25
2023-05-14T02:19:12.385Z,96812.47
2023-05-14T02:20:14.437Z,96805.66
2023-05-14T02:21:16.361Z,96809.66
2023-05-14T02:22:18.457Z,96807.44
2023-05-14T02:23:25.617Z,96808.44
2023-05-14T02:24:33.054Z,96810.22
2023-05-14T02:25:35.604Z,96809.44
2023-05-14T02:26:37.425Z,96811.63
2023-05-14T02:27:39.317Z,96805.59
2023-05-14T02:28:41.147Z,96815.00
2023-05-14T02:29:42.978Z,96812.81
2023-05-14T02:30:44.830Z,96803.00
2023-05-14T02:31:46.690Z,96812.38
2023-05-14T02:32:48.681Z,96810.63
2023-05-14T02:33:50.575Z,96807.00
2023-05-14T02:34:52.410Z,96814.63
2023-05-14T02:35:54.420Z,96803.59
2023-05-14T02:36:56.473Z,96801.19
2023-05-14T02:38:00.113Z,96813.41
2023-05-14T02:39:01.946Z,96814.56
2023-05-14T02:40:04.644Z,96816.56
2023-05-14T02:41:06.597Z,96810.38
2023-05-14T02:42:08.424Z,96805.97
2023-05-14T02:43:10.366Z,96811.78
2023-05-14T02:44:12.189Z,96803.78
2023-05-14T02:45:14.061Z,96809.59
2023-05-14T02:46:16.140Z,96806.63
2023-05-14T02:47:18.052Z,96805.00
2023-05-14T02:48:19.969Z,96806.81
2023-05-14T02:49:21.966Z,96803.00
2023-05-14T02:50:24.045Z,96803.34
2023-05-14T02:51:27.435Z,96804.50
2023-05-14T02:52:29.326Z,96798.69
2023-05-14T02:53:31.234Z,96796.50
2023-05-14T02:54:33.059Z,96796.50
2023-05-14T02:55:35.545Z,96805.31
2023-05-14T02:56:37.499Z,96796.13
2023-05-14T02:57:39.287Z,96798.53
2023-05-14T02:58:41.460Z,96785.94
2023-05-14T02:59:43.338Z,96791.38
2023-05-14T03:00:45.894Z,96790.53
2023-05-14T03:01:48.183Z,96792.97
2023-05-14T03:02:50.804Z,96793.97
2023-05-14T03:03:53.300Z,96791.75
2023-05-14T03:04:55.195Z,96784.97
2023-05-14T03:05:57.246Z,96784.78
2023-05-14T03:06:59.126Z,96789.56
2023-05-14T03:08:01.313Z,96784.38
2023-05-14T03:09:03.325Z,96793.00
2023-05-14T03:10:06.080Z,96785.75
2023-05-14T03:11:07.843Z,96784.34
2023-05-14T03:12:09.872Z,96789.56
2023-05-14T03:13:11.860Z,96782.53
2023-05-14T03:14:13.786Z,96783.94
2023-05-14T03:15:15.696Z,96780.34
2023-05-14T03:16:17.560Z,96786.13
2023-05-14T03:17:19.514Z,96786.13
2023-05-14T03:18:21.826Z,96783.50
2023-05-14T03:19:23.692Z,96784.94
2023-05-14T03:20:26.439Z,96782.91
2023-05-14T03:21:28.292Z,96783.31
2023-05-14T03:22:30.274Z,96782.31
2023-05-14T03:23:35.241Z,96783.72
2023-05-14T03:24:39.392Z,96775.72
2023-05-14T03:25:41.642Z,96779.75
2023-05-14T03:26:43.472Z,96784.72
2023-05-14T03:27:45.353Z,96775.72
2023-05-14T03:28:47.236Z,96782.53
2023-05-14T03:29:49.145Z,96783.50
2023-05-14T03:30:51.076Z,96788.53
2023-05-14T03:31:53.326Z,96780.91
2023-05-14T03:32:55.377Z,96788.94
2023-05-14T03:33:57.310Z,96787.31
2023-05-14T03:34:59.070Z,96778.31
2023-05-14T03:36:00.989Z,96784.28
2023-05-14T03:37:02.965Z,96788.88
2023-05-14T03:38:04.893Z,96786.66
2023-05-14T03:39:10.093Z,96784.69
2023-05-14T03:40:12.177Z,96782.28
2023-05-14T03:41:14.050Z,96779.25
2023-05-14T03:42:15.977Z,96783.66
2023-05-14T03:43:17.828Z,96774.28
2023-05-14T03:44:19.610Z,96774.50
2023-05-14T03:45:21.542Z,96774.72
2023-05-14T03:46:23.393Z,96775.94
2023-05-14T03:47:25.395Z,96774.31
2023-05-14T03:48:27.455Z,96777.31
2023-05-14T03:49:29.519Z,96785.13
2023-05-14T03:50:31.385Z,96780.09
2023-05-14T03:51:33.444Z,96784.91
2023-05-14T03:52:35.341Z,96778.72
2023-05-14T03:53:37.312Z,96779.31
2023-05-14T03:54:41.419Z,96772.31
2023-05-14T03:55:43.282Z,96779.75
2023-05-14T03:56:45.197Z,96776.53
2023-05-14T03:57:47.927Z,96786.53
2023-05-14T03:58:49.796Z,96790.16
2023-05-14T03:59:51.648Z,96787.38
2023-05-14T04:00:53.531Z,96782.97
2023-05-14T04:01:55.451Z,96782.78
2023-05-14T04:02:57.327Z,96784.19
2023-05-14T04:03:59.373Z,96778.97
2023-05-14T04:05:01.298Z,96776.97
2023-05-14T04:06:03.247Z,96781.38
2023-05-14T04:07:05.082Z,96779.41
2023-05-14T04:08:06.882Z,96781.00
2023-05-14T04:09:08.840Z,96790.22
2023-05-14T04:10:11.266Z,96784.78
2023-05-14T04:11:13.096Z,96786.41
2023-05-14T04:12:14.898Z,96785.63
2023-05-14T04:13:16.728Z,96780.59
2023-05-14T04:14:18.700Z,96784.78
2023-05-14T04:15:20.650Z,96778.97
2023-05-14T04:16:22.598Z,96775.72
2023-05-14T04:17:24.540Z,96775.09
2023-05-14T04:18:26.598Z,96780.13
2023-05-14T04:19:28.596Z,96779.53
2023-05-14T04:20:30.396Z,96775.94
2023-05-14T04:21:32.433Z,96775.38
2023-05-14T04:22:34.388Z,96784.41
2023-05-14T04:23:36.245Z,96774.00
2023-05-14T04:24:38.250Z,96777.03
2023-05-14T04:25:40.102Z,96777.22
2023-05-14T04:26:41.967Z,96774.19
2023-05-14T04:27:43.876Z,96766.00
2023-05-14T04:28:45.982Z,96768.00
2023-05-14T04:29:48.469Z,96771.22
2023-05-14T04:30:50.359Z,96776.00
2023-05-14T04:31:52.197Z,96776.41
2023-05-14T04:32:54.133Z,96773.03
2023-05-14T04:33:56.029Z,96771.41
2023-05-14T04:34:57.935Z,96769.03
2023-05-14T04:35:59.811Z,96767.41
2023-05-14T04:37:01.684Z,96758.97
2023-05-14T04:38:03.779Z,96753.97
2023-05-14T04:39:06.319Z,96762.97
2023-05-14T04:40:09.105Z,96758.97
2023-05-14T04:41:10.920Z,96764.00
2023-05-14T04:42:12.898Z,96760.56
2023-05-14T04:43:14.743Z,96768.19
2023-05-14T04:44:17.284Z,96766.59
2023-05-14T04:45:19.854Z,96762.56
2023-05-14T04:46:21.721Z,96766.56
2023-05-14T04:47:23.723Z,96761.91
2023-05-14T04:48:26.066Z,96758.94
2023-05-14T04:49:27.971Z,96762.38
2023-05-14T04:50:29.948Z,96753.97
2023-05-14T04:51:32.031Z,96761.97
2023-05-14T04:52:33.961Z,96758.38
2023-05-14T04:53:35.778Z,96756.94
2023-05-14T04:54:37.712Z,96757.97
2023-05-14T04:55:39.656Z,96751.34
2023-05-14T04:56:41.489Z,96754.56
2023-05-14T04:57:43.401Z,96751.34
2023-05-14T04:58:45.252Z,96750.56
2023-05-14T04:59:47.082Z,96751.78
2023-05-14T05:00:49.179Z,96751.00
2023-05-14T05:01:52.069Z,96755.81
2023-05-14T05:02:53.994Z,96752.22
2023-05-14T05:03:55.914Z,96759.44
2023-05-14T05:04:57.795Z,96760.59
2023-05-14T05:05:59.886Z,96760.59
2023-05-14T05:07:01.726Z,96762.59
2023-05-14T05:08:03.696Z,96763.59
2023-05-14T05:09:05.612Z,96762.78
2023-05-14T05:10:07.840Z,96760.59
2023-05-14T05:11:09.757Z,96763.78
2023-05-14T05:12:11.687Z,96756.56
2023-05-14T05:13:13.657Z,96753.34
2023-05-14T05:14:15.508Z,96756.97
2023-05-14T05:15:17.388Z,96757.16
2023-05-14T05:16:19.195Z,96760.97
2023-05-14T05:17:21.045Z,96762.97
2023-05-14T05:18:23.032Z,96760.59
2023-05-14T05:19:35.917Z,96759.78
2023-05-14T05:20:41.858Z,96760.38
2023-05-14T05:21:43.937Z,96751.78
2023-05-14T05:22:45.880Z,96758.00
2023-05-14T05:23:47.753Z,96756.22
2023-05-14T05:24:50.012Z,96751.78
2023-05-14T05:25:52.338Z,96751.00
2023-05-14T05:26:55.973Z,96753.63
2023-05-14T05:27:57.931Z,96749.81
2023-05-14T05:28:59.825Z,96749.41
2023-05-14T05:30:02.105Z,96754.22
2023-05-14T05:31:04.127Z,96748.22
2023-05-14T05:32:06.381Z,96748.81
2023-05-14T05:33:08.330Z,96745.00
2023-05-14T05:34:10.179Z,96747.81
2023-05-14T05:35:12.045Z,96745.19
2023-05-14T05:36:13.962Z,96738.59
2023-05-14T05:37:15.773Z,96746.59
2023-05-14T05:38:18.663Z,96744.00
2023-05-14T05:39:20.761Z,96740.19
2023-05-14T05:40:22.848Z,96747.00
2023-05-14T05:41:25.125Z,96744.22
2023-05-14T05:42:27.051Z,96749.78
2023-05-14T05:43:29.008Z,96742.81
2023-05-14T05:44:30.980Z,96747.00
2023-05-14T05:45:32.930Z,96748.19
2023-05-14T05:46:34.862Z,96749.00
2023-05-14T05:47:36.730Z,96745.41
2023-05-14T05:48:38.600Z,96746.19
2023-05-14T05:49:40.506Z,96750.00
2023-05-14T05:50:44.531Z,96749.38
2023-05-14T05:51:46.398Z,96752.19
2023-05-14T05:52:48.350Z,96749.41
2023-05-14T05:53:50.296Z,96750.19
2023-05-14T05:54:52.288Z,96750.81
2023-05-14T05:55:54.079Z,96749.59
2023-05-14T05:56:56.089Z,96749.00
2023-05-14T05:57:57.958Z,96752.59
2023-05-14T05:58:59.890Z,96748.59
2023-05-14T06:00:06.361Z,96738.94
2023-05-14T06:01:08.363Z,96745.38
2023-05-14T06:02:10.327Z,96747.78
2023-05-14T06:03:12.265Z,96751.78
2023-05-14T06:04:14.316Z,96752.97
2023-05-14T06:05:16.358Z,96754.59
2023-05-14T06:06:18.318Z,96757.00
2023-05-14T06:07:20.211Z,96751.00
2023-05-14T06:08:22.088Z,96756.78
2023-05-14T06:09:24.029Z,96755.81
2023-05-14T06:10:26.101Z,96757.00
2023-05-14T06:11:28.331Z,96758.59
2023-05-14T06:12:30.227Z,96757.41
2023-05-14T06:13:32.110Z,96759.00
2023-05-14T06:14:33.931Z,96757.00
2023-05-14T06:15:35.914Z,96750.59
2023-05-14T06:16:37.817Z,96752.78
2023-05-14T06:17:39.879Z,96748.78
2023-05-14T06:18:41.806Z,96750.75
2023-05-14T06:19:43.739Z,96747.75
2023-05-14T06:20:45.626Z,96749.75
2023-05-14T06:21:47.464Z,96753.97
2023-05-14T06:22:49.402Z,96750.53
2023-05-14T06:23:51.381Z,96746.16
2023-05-14T06:24:53.244Z,96742.50
2023-05-14T06:25:55.222Z,96749.34
2023-05-14T06:26:57.020Z,96749.34
2023-05-14T06:27:58.805Z,96739.91
2023-05-14T06:29:00.659Z,96747.94
2023-05-14T06:30:02.462Z,96741.72
2023-05-14T06:31:04.481Z,96744.31
2023-05-14T06:32:06.686Z,96748.34
2023-05-14T06:33:08.573Z,96737.72
2023-05-14T06:34:11.011Z,96741.31
2023-05-14T06:35:12.848Z,96744.13
2023-05-14T06:36:14.786Z,96738.72
2023-05-14T06:37:16.680Z,96741.72
2023-05-14T06:38:18.502Z,96741.88
2023-05-14T06:39:20.344Z,96738.28
2023-05-14T06:40:22.490Z,96738.28
2023-05-14T06:41:24.820Z,96740.28
2023-05-14T06:42:26.849Z,96740.88
2023-05-14T06:43:28.808Z,96739.88
2023-05-14T06:44:30.824Z,96736.88
2023-05-14T06:45:33.296Z,96735.25
2023-05-14T06:46:35.485Z,96733.47
2023-05-14T06:47:37.360Z,96729.44
2023-05-14T06:48:39.350Z,96729.22
2023-05-14T06:49:41.261Z,96728.81
2023-05-14T06:50:43.043Z,96732.59
2023-05-14T06:51:44.984Z,96731.38
2023-05-14T06:52:47.219Z,96729.16
2023-05-14T06:53:49.171Z,96728.16
2023-05-14T06:54:51.015Z,96724.75
2023-05-14T06:55:52.841Z,96719.13
2023-05-14T06:56:54.726Z,96718.28
2023-05-14T06:57:56.669Z,96723.66
2023-05-14T06:58:58.482Z,96719.84
2023-05-14T07:00:02.762Z,96719.22
2023-05-14T07:01:05.413Z,96720.59
2023-05-14T07:02:07.414Z,96717.59
2023-05-14T07:03:09.346Z,96709.13
2023-05-14T07:04:11.228Z,96704.91
2023-05-14T07:05:13.489Z,96705.31
2023-05-14T07:06:15.610Z,96701.34
2023-05-14T07:07:20.815Z,96702.53
2023-05-14T07:08:22.706Z,96707.16
2023-05-14T07:09:24.545Z,96706.16
2023-05-14T07:10:26.767Z,96704.56
2023-05-14T07:11:28.984Z,96696.94
2023-05-14T07:12:30.953Z,96703.97
2023-05-14T07:13:32.755Z,96705.72
2023-05-14T07:14:34.732Z,96698.69
2023-05-14T07:15:36.635Z,96692.59
2023-05-14T07:16:38.510Z,96691.75
2023-05-14T07:17:40.754Z,96695.56
2023-05-14T07:18:42.706Z,96697.78
2023-05-14T07:19:44.602Z,96693.78
2023-05-14T07:20:46.437Z,96685.75
2023-05-14T07:21:48.309Z,96686.13
2023-05-14T07:22:50.993Z,96688.91
2023-05-14T07:23:52.842Z,96688.25
2023-05-14T07:24:54.681Z,96685.44
2023-05-14T07:25:56.538Z,96687.84
2023-05-14T07:26:58.828Z,96685.63
2023-05-14T07:28:00.904Z,96686.47
2023-05-14T07:29:02.755Z,96683.78
2023-05-14T07:30:04.784Z,96685.75
2023-05-14T07:31:09.284Z,96684.91
2023-05-14T07:32:12.269Z,96683.47
2023-05-14T07:33:16.223Z,96681.22
2023-05-14T07:34:18.225Z,96687.63
2023-05-14T07:35:20.256Z,96677.16
2023-05-14T07:36:22.143Z,96681.41
2023-05-14T07:37:26.147Z,96680.38
2023-05-14T07:38:28.230Z,96673.75
2023-05-14T07:39:30.127Z,96677.56
2023-05-14T07:40:32.474Z,96676.53
2023-05-14T07:41:34.351Z,96674.34
2023-05-14T07:42:37.284Z,96674.75
2023-05-14T07:43:40.834Z,96664.91
2023-05-14T07:44:42.722Z,96665.47
2023-05-14T07:45:44.592Z,96670.34
2023-05-14T07:46:46.431Z,96668.53
2023-05-14T07:47:52.427Z,96664.31
2023-05-14T07:48:54.638Z,96667.50
2023-05-14T07:49:57.317Z,96671.09
2023-05-14T07:50:59.151Z,96672.25
2023-05-14T07:52:01.048Z,96671.03
2023-05-14T07:53:02.898Z,96669.03
2023-05-14T07:54:05.059Z,96667.59
2023-05-14T07:55:07.236Z,96666.97
2023-05-14T07:56:09.278Z,96665.31
2023-05-14T07:57:11.255Z,96668.91
2023-05-14T07:58:13.216Z,96664.47
2023-05-14T07:59:15.202Z,96665.28
2023-05-14T08:00:17.644Z,96655.63
2023-05-14T08:01:19.799Z,96658.81
2023-05-14T08:02:22.432Z,96657.00
2023-05-14T08:03:24.829Z,96659.97
2023-05-14T08:04:27.051Z,96666.16
2023-05-14T08:05:28.979Z,96665.50
2023-05-14T08:06:30.889Z,96662.47
2023-05-14T08:07:33.914Z,96649.97
2023-05-14T08:08:36.498Z,96659.63
2023-05-14T08:09:38.405Z,96654.84
2023-05-14T08:10:40.379Z,96657.75
2023-05-14T08:11:42.278Z,96655.53
2023-05-14T08:12:44.202Z,96650.53
2023-05-14T08:13:46.032Z,96646.53
2023-05-14T08:14:47.958Z,96649.16
2023-05-14T08:15:49.863Z,96646.69
2023-05-14T08:16:51.805Z,96642.19
2023-05-14T08:17:53.759Z,96642.47
2023-05-14T08:18:55.740Z,96641.38
2023-05-14T08:19:57.784Z,96640.28
2023-05-14T08:20:59.603Z,96634.53
2023-05-14T08:22:01.612Z,96633.88
2023-05-14T08:23:03.571Z,96632.19
2023-05-14T08:24:05.693Z,96625.28
2023-05-14T08:25:08.141Z,96624.81
2023-05-14T08:26:10.108Z,96619.16
2023-05-14T08:27:12.015Z,96625.09
2023-05-14T08:28:13.841Z,96625.66
2023-05-14T08:29:16.754Z,96620.00
2023-05-14T08:30:18.818Z,96622.38
2023-05-14T08:31:20.826Z,96616.69
2023-05-14T08:32:23.821Z,96617.06
2023-05-14T08:33:26.178Z,96610.00
2023-05-14T08:34:29.142Z,96603.06
2023-05-14T08:35:31.112Z,96610.91
2023-05-14T08:36:33.129Z,96609.88
2023-05-14T08:37:35.032Z,96605.78
2023-05-14T08:38:36.872Z,96607.41
2023-05-14T08:39:38.671Z,96611.03
2023-05-14T08:40:40.695Z,96610.03
2023-05-14T08:41:43.346Z,96604.00
2023-05-14T08:42:45.339Z,96605.56
2023-05-14T08:43:58.801Z,96611.59
2023-05-14T08:45:04.443Z,96606.72
2023-05-14T08:46:06.655Z,96605.50
2023-05-14T08:47:08.691Z,96605.03
2023-05-14T08:48:14.370Z,96608.22
2023-05-14T08:49:18.925Z,96606.16
2023-05-14T08:50:22.881Z,96605.16
2023-05-14T08:51:26.952Z,96606.53
2023-05-14T08:52:28.981Z,96602.06
2023-05-14T08:53:31.718Z,96609.16
2023-05-14T08:54:34.039Z,96607.66
2023-05-14T08:55:37.538Z,96604.00
2023-05-14T08:56:40.958Z,96605.66
2023-05-14T08:57:42.830Z,96602.00
2023-05-14T08:58:44.677Z,96599.94
2023-05-14T08:59:48.785Z,96597.31
2023-05-14T09:00:51.164Z,96598.38
2023-05-14T09:01:54.249Z,96603.50
2023-05-14T09:02:56.377Z,96598.59
2023-05-14T09:03:58.968Z,96603.63
2023-05-14T09:05:01.687Z,96604.19
2023-05-14T09:06:04.337Z,96603.72
2023-05-14T09:07:07.890Z,96599.63
2023-05-14T09:08:09.837Z,96602.00
2023-05-14T09:09:13.364Z,96598.69
2023-05-14T09:10:15.992Z,96599.84
2023-05-14T09:11:17.912Z,96595.16
2023-05-14T09:12:20.260Z,96595.16
2023-05-14T09:13:22.201Z,96596.22
2023-05-14T09:14:24.416Z,96604.66
2023-05-14T09:15:27.955Z,96597.34
2023-05-14T09:16:29.995Z,96602.38
2023-05-14T09:17:32.014Z,96596.31
2023-05-14T09:18:35.795Z,96595.72
2023-05-14T09:19:39.397Z,96597.22
2023-05-14T09:20:41.396Z,96591.88
2023-05-14T09:21:45.075Z,96596.09
2023-05-14T09:22:47.073Z,96601.56
2023-05-14T09:23:54.132Z,96596.78
2023-05-14T09:25:22.302Z,96597.13
2023-05-14T09:26:26.356Z,96597.47
2023-05-14T09:27:29.927Z,96595.16
2023-05-14T09:28:31.913Z,96592.09
2023-05-14T09:29:34.651Z,96590.84
2023-05-14T09:30:37.324Z,96588.78
2023-05-14T09:31:39.317Z,96591.97
2023-05-14T09:32:46.243Z,96588.91
2023-05-14T09:33:51.656Z,96584.22
2023-05-14T09:34:53.594Z,96585.03
2023-05-14T09:35:58.472Z,96587.41
2023-05-14T09:37:01.775Z,96592.66
2023-05-14T09:38:03.629Z,96591.41
2023-05-14T09:39:05.604Z,96585.72
2023-05-14T09:40:09.422Z,96582.03
2023-05-14T09:41:11.684Z,96578.41
2023-05-14T09:42:13.531Z,96586.84
2023-05-14T09:43:15.539Z,96585.56
2023-05-14T09:44:17.585Z,96587.97
2023-05-14T09:45:19.672Z,96582.72
2023-05-14T09:46:22.118Z,96584.31
2023-05-14T09:47:24.144Z,96575.44
2023-05-14T09:48:26.202Z,96583.03
2023-05-14T09:49:28.810Z,96578.63
2023-05-14T09:50:30.856Z,96578.63
2023-05-14T09:51:32.749Z,96583.84
2023-05-14T09:52:35.143Z,96582.81
2023-05-14T09:53:37.493Z,96590.13
2023-05-14T09:54:40.348Z,96585.56
2023-05-14T09:55:42.245Z,96587.16
2023-05-14T09:56:44.529Z,96586.59
2023-05-14T09:57:46.541Z,96586.84
2023-05-14T09:58:48.453Z,96581.59
2023-05-14T09:59:50.315Z,96589.22
2023-05-14T10:00:52.233Z,96587.63
2023-05-14T10:01:54.492Z,96583.66
2023-05-14T10:02:58.184Z,96590.97
2023-05-14T10:04:00.556Z,96590.59
2023-05-14T10:05:04.362Z,96583.75
2023-05-14T10:06:06.883Z,96584.31
2023-05-14T10:07:09.705Z,96578.84
2023-05-14T10:08:24.886Z,96588.34
2023-05-14T10:09:28.602Z,96579.41
2023-05-14T10:10:31.087Z,96581.47
2023-05-14T10:11:34.102Z,96582.25
2023-05-14T10:12:39.459Z,96583.75
2023-05-14T10:13:42.905Z,96578.41
2023-05-14T10:14:49.839Z,96590.13
2023-05-14T10:15:54.829Z,96577.03
2023-05-14T10:16:59.973Z,96580.22
2023-05-14T10:18:04.508Z,96577.16
2023-05-14T10:19:08.740Z,96582.19
2023-05-14T10:20:14.497Z,96583.75
2023-05-14T10:21:18.793Z,96581.94
2023-05-14T10:22:23.475Z,96577.50
2023-05-14T10:23:25.708Z,96583.53
2023-05-14T10:24:27.845Z,96573.84
2023-05-14T10:25:30.029Z,96572.81
2023-05-14T10:26:39.479Z,96570.97
2023-05-14T10:27:42.807Z,96576.00
2023-05-14T10:28:45.171Z,96574.41
2023-05-14T10:29:51.536Z,96575.22
2023-05-14T10:30:54.381Z,96577.84
2023-05-14T10:31:56.320Z,96568.94
2023-05-14T10:33:11.970Z,96570.41
2023-05-14T10:34:38.013Z,96570.66
2023-05-14T10:35:53.017Z,96576.81
2023-05-14T10:36:54.879Z,96564.28
2023-05-14T10:37:57.039Z,96570.09
2023-05-14T10:38:58.965Z,96570.66
2023-05-14T10:40:02.710Z,96562.47
2023-05-14T10:41:12.380Z,96563.47
2023-05-14T10:42:18.698Z,96562.91
2023-05-14T10:43:20.560Z,96571.81
2023-05-14T10:44:22.946Z,96571.56
2023-05-14T10:45:25.577Z,96567.94
2023-05-14T10:46:27.588Z,96565.09
2023-05-14T10:47:29.702Z,96564.28
2023-05-14T10:48:32.371Z,96556.97
2023-05-14T10:49:42.912Z,96555.97
2023-05-14T10:50:48.500Z,96552.78
2023-05-14T10:51:53.124Z,96546.25
2023-05-14T10:52:55.692Z,96548.19
2023-05-14T10:53:57.592Z,96557.66
2023-05-14T10:55:03.167Z,96558.00
2023-05-14T10:56:09.335Z,96555.94
2023-05-14T10:57:14.310Z,96551.50
2023-05-14T10:58:16.541Z,96555.47
2023-05-14T10:59:18.401Z,96547.41
2023-05-14T11:00:21.278Z,96543.97
2023-05-14T11:01:24.418Z,96542.38
2023-05-14T11:02:26.423Z,96542.38
2023-05-14T11:03:33.222Z,96550.25
2023-05-14T11:04:36.072Z,96541.94
2023-05-14T11:05:40.532Z,96548.09
2023-05-14T11:06:43.551Z,96536.00
2023-05-14T11:07:46.490Z,96540.44
2023-05-14T11:08:50.564Z,96540.09
2023-05-14T11:09:53.004Z,96536.47
2023-05-14T11:10:55.297Z,96529.19
2023-05-14T11:11:57.158Z,96535.78
2023-05-14T11:12:59.739Z,96530.53
2023-05-14T11:14:01.605Z,96532.72
2023-05-14T11:15:04.744Z,96529.03
2023-05-14T11:17:12.322Z,96526.06
2023-05-14T11:18:14.469Z,96534.50
2023-05-14T11:19:18.207Z,96532.94
2023-05-14T11:20:21.582Z,96530.31
2023-05-14T11:21:23.676Z,96530.31
2023-05-14T11:22:25.703Z,96531.09
2023-05-14T11:23:28.100Z,96533.16
2023-05-14T11:24:30.042Z,96532.59
2023-05-14T11:25:31.959Z,96532.38
2023-05-14T11:26:34.518Z,96532.72
2023-05-14T11:27:38.022Z,96538.19
2023-05-14T11:28:39.989Z,96532.38
2023-05-14T11:29:46.515Z,96537.63
2023-05-14T11:30:48.975Z,96539.81
2023-05-14T11:31:50.953Z,96541.50
2023-05-14T11:32:54.439Z,96530.78
2023-05-14T11:33:56.450Z,96535.22
2023-05-14T11:34:58.347Z,96530.81
2023-05-14T11:36:00.244Z,96538.53
2023-05-14T11:37:05.680Z,96531.25
2023-05-14T11:38:09.197Z,96534.44
2023-05-14T11:39:18.007Z,96526.78
2023-05-14T11:40:20.300Z,96533.66
2023-05-14T11:41:23.464Z,96525.56
2023-05-14T11:42:26.081Z,96526.34
2023-05-14T11:43:29.608Z,96527.25
2023-05-14T11:44:34.418Z,96527.50
2023-05-14T11:45:37.356Z,96525.66
2023-05-14T11:46:39.328Z,96520.97
2023-05-14T11:47:42.244Z,96520.75
2023-05-14T11:48:44.185Z,96521.56
2023-05-14T11:49:46.247Z,96511.41
2023-05-14T11:50:52.242Z,96518.72
2023-05-14T11:52:00.802Z,96516.09
2023-05-14T11:53:02.700Z,96508.56
2023-05-14T11:54:04.706Z,96509.47
2023-05-14T11:55:06.909Z,96511.88
2023-05-14T11:56:09.942Z,96509.81
2023-05-14T11:57:13.504Z,96499.66
2023-05-14T11:58:17.274Z,96502.75
2023-05-14T11:59:19.637Z,96499.91
2023-05-14T12:00:23.400Z,96492.50
2023-05-14T12:01:25.797Z,96503.66
2023-05-14T12:02:29.556Z,96495.09
2023-05-14T12:03:31.697Z,96499.09
2023-05-14T12:04:34.138Z,96490.66
2023-05-14T12:05:37.963Z,96493.63
2023-05-14T12:06:40.165Z,96492.50
2023-05-14T12:07:44.841Z,96494.00
2023-05-14T12:08:49.199Z,96496.03
2023-05-14T12:09:51.108Z,96494.56
2023-05-14T12:10:53.401Z,96491.25
2023-05-14T12:11:55.288Z,96491.72
2023-05-14T12:12:57.143Z,96490.78
2023-05-14T12:14:01.985Z,96497.66
2023-05-14T12:15:10.923Z,96490.34
2023-05-14T12:16:13.234Z,96500.94
2023-05-14T12:17:19.202Z,96491.38
2023-05-14T12:18:24.916Z,96493.91